sensor_id;sensor_type;location;lat;lon;timestamp;P1;durP1;ratioP1;P2;durP2;ratioP2
32407;SDS011;18869;55.970;37.502;2023-09-12T00:01:34;23.93;;;16.40;;
32407;SDS011;18869;55.970;37.502;2023-09-12T00:04:02;25.73;;;18.10;;
32407;SDS011;18869;55.970;37.502;2023-09-12T00:06:30;29.33;;;18.00;;
32407;SDS011;18869;55.970;37.502;2023-09-12T00:08:57;22.70;;;16.10;;
32407;SDS011;18869;55.970;37.502;2023-09-12T00:11:24;25.57;;;16.37;;
32407;SDS011;18869;55.970;37.502;2023-09-12T00:13:51;25.50;;;17.67;;
32407;SDS011;18869;55.970;37.502;2023-09-12T00:16:18;31.10;;;19.07;;
32407;SDS011;18869;55.970;37.502;2023-09-12T00:18:46;26.67;;;17.10;;
32407;SDS011;18869;55.970;37.502;2023-09-12T00:21:13;26.20;;;18.00;;
32407;SDS011;18869;55.970;37.502;2023-09-12T00:23:40;25.17;;;18.07;;
32407;SDS011;18869;55.970;37.502;2023-09-12T00:26:08;28.20;;;18.43;;
32407;SDS011;18869;55.970;37.502;2023-09-12T00:28:34;28.83;;;18.93;;
32407;SDS011;18869;55.970;37.502;2023-09-12T00:31:03;24.53;;;16.90;;
32407;SDS011;18869;55.970;37.502;2023-09-12T00:33:30;27.10;;;18.50;;
32407;SDS011;18869;55.970;37.502;2023-09-12T00:35:57;27.77;;;19.83;;
32407;SDS011;18869;55.970;37.502;2023-09-12T00:38:25;26.77;;;17.57;;
32407;SDS011;18869;55.970;37.502;2023-09-12T00:40:53;28.27;;;18.50;;
32407;SDS011;18869;55.970;37.502;2023-09-12T00:43:20;27.43;;;19.10;;
32407;SDS011;18869;55.970;37.502;2023-09-12T00:45:47;28.23;;;19.17;;
32407;SDS011;18869;55.970;37.502;2023-09-12T00:48:14;27.63;;;18.93;;
32407;SDS011;18869;55.970;37.502;2023-09-12T00:50:42;28.93;;;18.13;;
32407;SDS011;18869;55.970;37.502;2023-09-12T00:53:10;26.33;;;17.90;;
32407;SDS011;18869;55.970;37.502;2023-09-12T00:55:39;26.30;;;18.63;;
32407;SDS011;18869;55.970;37.502;2023-09-12T00:58:13;25.50;;;17.50;;
32407;SDS011;18869;55.970;37.502;2023-09-12T01:00:41;25.83;;;17.47;;
32407;SDS011;18869;55.970;37.502;2023-09-12T01:03:08;25.00;;;17.50;;
32407;SDS011;18869;55.970;37.502;2023-09-12T01:05:35;30.30;;;18.97;;
32407;SDS011;18869;55.970;37.502;2023-09-12T01:08:03;29.73;;;19.30;;
32407;SDS011;18869;55.970;37.502;2023-09-12T01:10:30;27.87;;;18.17;;
32407;SDS011;18869;55.970;37.502;2023-09-12T01:13:00;29.33;;;18.33;;
32407;SDS011;18869;55.970;37.502;2023-09-12T01:15:31;29.47;;;18.30;;
32407;SDS011;18869;55.970;37.502;2023-09-12T01:17:58;25.60;;;16.80;;
32407;SDS011;18869;55.970;37.502;2023-09-12T01:20:27;26.23;;;18.03;;
32407;SDS011;18869;55.970;37.502;2023-09-12T01:25:59;23.43;;;16.60;;
32407;SDS011;18869;55.970;37.502;2023-09-12T01:28:30;25.10;;;17.10;;
32407;SDS011;18869;55.970;37.502;2023-09-12T01:30:57;25.50;;;17.47;;
32407;SDS011;18869;55.970;37.502;2023-09-12T01:33:24;26.33;;;17.67;;
32407;SDS011;18869;55.970;37.502;2023-09-12T01:35:52;24.83;;;17.30;;
32407;SDS011;18869;55.970;37.502;2023-09-12T01:38:19;24.40;;;16.90;;
32407;SDS011;18869;55.970;37.502;2023-09-12T01:40:47;29.03;;;18.37;;
32407;SDS011;18869;55.970;37.502;2023-09-12T01:43:16;28.50;;;18.77;;
32407;SDS011;18869;55.970;37.502;2023-09-12T01:45:45;26.27;;;18.33;;
32407;SDS011;18869;55.970;37.502;2023-09-12T01:48:12;32.23;;;19.27;;
32407;SDS011;18869;55.970;37.502;2023-09-12T01:50:42;27.00;;;17.80;;
32407;SDS011;18869;55.970;37.502;2023-09-12T01:53:09;27.10;;;17.87;;
32407;SDS011;18869;55.970;37.502;2023-09-12T01:55:37;32.23;;;21.97;;
32407;SDS011;18869;55.970;37.502;2023-09-12T01:58:04;32.60;;;20.50;;
32407;SDS011;18869;55.970;37.502;2023-09-12T02:00:33;28.67;;;18.67;;
32407;SDS011;18869;55.970;37.502;2023-09-12T02:03:03;29.80;;;19.47;;
32407;SDS011;18869;55.970;37.502;2023-09-12T02:05:30;27.33;;;18.73;;
32407;SDS011;18869;55.970;37.502;2023-09-12T02:07:59;26.37;;;18.00;;
32407;SDS011;18869;55.970;37.502;2023-09-12T02:10:28;29.03;;;19.63;;
32407;SDS011;18869;55.970;37.502;2023-09-12T02:12:55;28.27;;;18.30;;
32407;SDS011;18869;55.970;37.502;2023-09-12T02:15:22;30.93;;;20.80;;
32407;SDS011;18869;55.970;37.502;2023-09-12T02:17:51;29.83;;;18.17;;
32407;SDS011;18869;55.970;37.502;2023-09-12T02:20:19;28.83;;;18.27;;
32407;SDS011;18869;55.970;37.502;2023-09-12T02:22:47;26.97;;;18.27;;
32407;SDS011;18869;55.970;37.502;2023-09-12T02:25:14;32.93;;;18.83;;
32407;SDS011;18869;55.970;37.502;2023-09-12T02:27:47;28.80;;;17.80;;
32407;SDS011;18869;55.970;37.502;2023-09-12T02:30:14;30.27;;;19.47;;
32407;SDS011;18869;55.970;37.502;2023-09-12T02:32:41;32.87;;;20.63;;
32407;SDS011;18869;55.970;37.502;2023-09-12T02:35:09;27.50;;;17.77;;
32407;SDS011;18869;55.970;37.502;2023-09-12T02:37:37;31.70;;;19.90;;
32407;SDS011;18869;55.970;37.502;2023-09-12T02:40:04;32.90;;;20.70;;
32407;SDS011;18869;55.970;37.502;2023-09-12T02:42:33;31.90;;;18.60;;
32407;SDS011;18869;55.970;37.502;2023-09-12T02:45:00;32.77;;;20.43;;
32407;SDS011;18869;55.970;37.502;2023-09-12T02:47:31;30.37;;;19.47;;
32407;SDS011;18869;55.970;37.502;2023-09-12T02:49:59;31.40;;;19.77;;
32407;SDS011;18869;55.970;37.502;2023-09-12T02:52:26;30.53;;;19.33;;
32407;SDS011;18869;55.970;37.502;2023-09-12T02:54:56;31.13;;;20.00;;
32407;SDS011;18869;55.970;37.502;2023-09-12T02:57:23;30.43;;;20.17;;
32407;SDS011;18869;55.970;37.502;2023-09-12T02:59:50;35.13;;;20.87;;
32407;SDS011;18869;55.970;37.502;2023-09-12T03:02:17;26.90;;;18.27;;
32407;SDS011;18869;55.970;37.502;2023-09-12T03:04:45;28.43;;;18.80;;
32407;SDS011;18869;55.970;37.502;2023-09-12T03:07:12;34.40;;;20.07;;
32407;SDS011;18869;55.970;37.502;2023-09-12T03:09:39;32.70;;;20.23;;
32407;SDS011;18869;55.970;37.502;2023-09-12T03:12:07;32.43;;;20.37;;
32407;SDS011;18869;55.970;37.502;2023-09-12T03:14:34;30.20;;;20.17;;
32407;SDS011;18869;55.970;37.502;2023-09-12T03:17:02;31.47;;;20.23;;
32407;SDS011;18869;55.970;37.502;2023-09-12T03:19:29;32.07;;;19.20;;
32407;SDS011;18869;55.970;37.502;2023-09-12T03:21:58;34.53;;;21.00;;
32407;SDS011;18869;55.970;37.502;2023-09-12T03:24:26;28.20;;;19.23;;
32407;SDS011;18869;55.970;37.502;2023-09-12T03:26:55;35.33;;;21.03;;
32407;SDS011;18869;55.970;37.502;2023-09-12T03:29:23;32.60;;;20.27;;
32407;SDS011;18869;55.970;37.502;2023-09-12T03:31:50;34.27;;;20.03;;
32407;SDS011;18869;55.970;37.502;2023-09-12T03:34:17;30.13;;;19.50;;
32407;SDS011;18869;55.970;37.502;2023-09-12T03:36:44;28.53;;;19.53;;
32407;SDS011;18869;55.970;37.502;2023-09-12T03:39:11;33.20;;;19.60;;
32407;SDS011;18869;55.970;37.502;2023-09-12T03:41:39;31.93;;;19.63;;
32407;SDS011;18869;55.970;37.502;2023-09-12T03:44:06;39.40;;;21.73;;
32407;SDS011;18869;55.970;37.502;2023-09-12T03:46:34;35.07;;;21.33;;
32407;SDS011;18869;55.970;37.502;2023-09-12T03:49:02;37.23;;;22.57;;
32407;SDS011;18869;55.970;37.502;2023-09-12T03:51:29;31.40;;;19.60;;
32407;SDS011;18869;55.970;37.502;2023-09-12T03:53:57;28.13;;;19.00;;
32407;SDS011;18869;55.970;37.502;2023-09-12T03:56:24;28.60;;;18.67;;
32407;SDS011;18869;55.970;37.502;2023-09-12T03:58:53;31.07;;;19.00;;
32407;SDS011;18869;55.970;37.502;2023-09-12T04:01:22;36.67;;;20.67;;
32407;SDS011;18869;55.970;37.502;2023-09-12T04:03:50;32.13;;;21.77;;
32407;SDS011;18869;55.970;37.502;2023-09-12T04:06:19;33.17;;;20.40;;
32407;SDS011;18869;55.970;37.502;2023-09-12T04:08:46;32.20;;;21.37;;
32407;SDS011;18869;55.970;37.502;2023-09-12T04:11:14;35.33;;;22.23;;
32407;SDS011;18869;55.970;37.502;2023-09-12T04:13:40;34.53;;;20.87;;
32407;SDS011;18869;55.970;37.502;2023-09-12T04:16:07;34.57;;;21.13;;
32407;SDS011;18869;55.970;37.502;2023-09-12T04:18:35;35.10;;;23.03;;
32407;SDS011;18869;55.970;37.502;2023-09-12T04:21:03;39.17;;;22.57;;
32407;SDS011;18869;55.970;37.502;2023-09-12T04:23:31;35.63;;;21.80;;
32407;SDS011;18869;55.970;37.502;2023-09-12T04:25:58;38.03;;;23.80;;
32407;SDS011;18869;55.970;37.502;2023-09-12T04:28:29;37.77;;;23.73;;
32407;SDS011;18869;55.970;37.502;2023-09-12T04:31:03;41.60;;;23.97;;
32407;SDS011;18869;55.970;37.502;2023-09-12T04:33:30;37.73;;;23.73;;
32407;SDS011;18869;55.970;37.502;2023-09-12T04:36:05;40.03;;;23.50;;
32407;SDS011;18869;55.970;37.502;2023-09-12T04:38:33;41.77;;;23.50;;
32407;SDS011;18869;55.970;37.502;2023-09-12T04:41:01;40.03;;;23.77;;
32407;SDS011;18869;55.970;37.502;2023-09-12T04:43:30;43.33;;;26.00;;
32407;SDS011;18869;55.970;37.502;2023-09-12T04:45:58;40.10;;;25.30;;
32407;SDS011;18869;55.970;37.502;2023-09-12T04:48:25;40.83;;;25.60;;
32407;SDS011;18869;55.970;37.502;2023-09-12T04:50:52;49.50;;;28.77;;
32407;SDS011;18869;55.970;37.502;2023-09-12T04:53:20;44.77;;;26.87;;
32407;SDS011;18869;55.970;37.502;2023-09-12T04:55:47;45.33;;;28.77;;
32407;SDS011;18869;55.970;37.502;2023-09-12T04:58:14;48.30;;;28.87;;
32407;SDS011;18869;55.970;37.502;2023-09-12T05:00:41;39.73;;;27.57;;
32407;SDS011;18869;55.970;37.502;2023-09-12T05:03:08;45.50;;;27.90;;
32407;SDS011;18869;55.970;37.502;2023-09-12T05:05:35;44.40;;;27.77;;
32407;SDS011;18869;55.970;37.502;2023-09-12T05:08:04;39.30;;;26.80;;
32407;SDS011;18869;55.970;37.502;2023-09-12T05:10:32;36.53;;;24.07;;
32407;SDS011;18869;55.970;37.502;2023-09-12T05:12:59;34.60;;;23.43;;
32407;SDS011;18869;55.970;37.502;2023-09-12T05:15:26;33.37;;;23.10;;
32407;SDS011;18869;55.970;37.502;2023-09-12T05:17:53;30.73;;;21.27;;
32407;SDS011;18869;55.970;37.502;2023-09-12T05:20:20;27.77;;;19.63;;
32407;SDS011;18869;55.970;37.502;2023-09-12T05:22:47;29.10;;;19.80;;
32407;SDS011;18869;55.970;37.502;2023-09-12T05:25:14;26.83;;;20.17;;
32407;SDS011;18869;55.970;37.502;2023-09-12T05:27:42;28.00;;;19.43;;
32407;SDS011;18869;55.970;37.502;2023-09-12T05:30:10;22.30;;;15.93;;
32407;SDS011;18869;55.970;37.502;2023-09-12T05:32:37;19.97;;;15.93;;
32407;SDS011;18869;55.970;37.502;2023-09-12T05:35:04;22.23;;;16.30;;
32407;SDS011;18869;55.970;37.502;2023-09-12T05:37:32;20.90;;;15.60;;
32407;SDS011;18869;55.970;37.502;2023-09-12T05:39:59;17.63;;;14.80;;
32407;SDS011;18869;55.970;37.502;2023-09-12T05:42:26;15.70;;;13.95;;
32407;SDS011;18869;55.970;37.502;2023-09-12T05:44:55;19.92;;;14.77;;
32407;SDS011;18869;55.970;37.502;2023-09-12T05:47:23;17.87;;;14.35;;
32407;SDS011;18869;55.970;37.502;2023-09-12T05:49:50;16.58;;;12.82;;
32407;SDS011;18869;55.970;37.502;2023-09-12T05:52:17;16.98;;;13.30;;
32407;SDS011;18869;55.970;37.502;2023-09-12T05:54:44;17.05;;;13.30;;
32407;SDS011;18869;55.970;37.502;2023-09-12T05:57:11;16.58;;;14.15;;
32407;SDS011;18869;55.970;37.502;2023-09-12T05:59:39;17.00;;;13.98;;
32407;SDS011;18869;55.970;37.502;2023-09-12T06:02:07;19.10;;;12.98;;
32407;SDS011;18869;55.970;37.502;2023-09-12T06:04:35;16.15;;;13.05;;
32407;SDS011;18869;55.970;37.502;2023-09-12T06:07:03;15.98;;;13.43;;
32407;SDS011;18869;55.970;37.502;2023-09-12T06:09:30;17.08;;;13.82;;
32407;SDS011;18869;55.970;37.502;2023-09-12T06:11:57;18.40;;;14.60;;
32407;SDS011;18869;55.970;37.502;2023-09-12T06:14:24;18.40;;;15.05;;
32407;SDS011;18869;55.970;37.502;2023-09-12T06:16:51;18.37;;;15.38;;
32407;SDS011;18869;55.970;37.502;2023-09-12T06:19:21;19.17;;;15.45;;
32407;SDS011;18869;55.970;37.502;2023-09-12T06:21:48;17.48;;;14.75;;
32407;SDS011;18869;55.970;37.502;2023-09-12T06:24:17;18.65;;;15.23;;
32407;SDS011;18869;55.970;37.502;2023-09-12T06:26:47;17.25;;;14.73;;
32407;SDS011;18869;55.970;37.502;2023-09-12T06:29:14;18.23;;;15.27;;
32407;SDS011;18869;55.970;37.502;2023-09-12T06:31:41;18.00;;;15.48;;
32407;SDS011;18869;55.970;37.502;2023-09-12T06:34:08;19.85;;;15.20;;
32407;SDS011;18869;55.970;37.502;2023-09-12T06:36:36;17.23;;;15.02;;
32407;SDS011;18869;55.970;37.502;2023-09-12T06:39:04;17.27;;;13.95;;
32407;SDS011;18869;55.970;37.502;2023-09-12T06:41:31;16.42;;;13.48;;
32407;SDS011;18869;55.970;37.502;2023-09-12T06:43:59;13.35;;;11.95;;
32407;SDS011;18869;55.970;37.502;2023-09-12T06:46:28;15.65;;;12.20;;
32407;SDS011;18869;55.970;37.502;2023-09-12T06:48:55;17.73;;;12.45;;
32407;SDS011;18869;55.970;37.502;2023-09-12T06:51:23;15.75;;;12.02;;
32407;SDS011;18869;55.970;37.502;2023-09-12T06:53:57;14.57;;;12.43;;
32407;SDS011;18869;55.970;37.502;2023-09-12T06:56:24;13.38;;;12.02;;
32407;SDS011;18869;55.970;37.502;2023-09-12T06:58:51;18.00;;;11.85;;
32407;SDS011;18869;55.970;37.502;2023-09-12T07:01:19;14.43;;;12.93;;
32407;SDS011;18869;55.970;37.502;2023-09-12T07:03:46;12.93;;;11.45;;
32407;SDS011;18869;55.970;37.502;2023-09-12T07:06:13;12.45;;;10.20;;
32407;SDS011;18869;55.970;37.502;2023-09-12T07:08:40;15.63;;;11.73;;
32407;SDS011;18869;55.970;37.502;2023-09-12T07:11:08;11.63;;;10.43;;
32407;SDS011;18869;55.970;37.502;2023-09-12T07:13:35;10.85;;;9.75;;
32407;SDS011;18869;55.970;37.502;2023-09-12T07:16:02;13.52;;;10.30;;
32407;SDS011;18869;55.970;37.502;2023-09-12T07:18:30;10.88;;;9.77;;
32407;SDS011;18869;55.970;37.502;2023-09-12T07:20:58;15.23;;;9.35;;
32407;SDS011;18869;55.970;37.502;2023-09-12T07:23:26;10.05;;;9.13;;
32407;SDS011;18869;55.970;37.502;2023-09-12T07:25:53;10.32;;;9.32;;
32407;SDS011;18869;55.970;37.502;2023-09-12T07:28:21;9.15;;;8.20;;
32407;SDS011;18869;55.970;37.502;2023-09-12T07:30:49;10.07;;;9.18;;
32407;SDS011;18869;55.970;37.502;2023-09-12T07:33:16;10.35;;;9.27;;
32407;SDS011;18869;55.970;37.502;2023-09-12T07:35:43;9.57;;;8.63;;
32407;SDS011;18869;55.970;37.502;2023-09-12T07:38:10;10.40;;;9.32;;
32407;SDS011;18869;55.970;37.502;2023-09-12T07:40:37;10.55;;;9.55;;
32407;SDS011;18869;55.970;37.502;2023-09-12T07:43:04;11.12;;;9.40;;
32407;SDS011;18869;55.970;37.502;2023-09-12T07:45:33;9.25;;;8.45;;
32407;SDS011;18869;55.970;37.502;2023-09-12T07:48:03;10.00;;;9.00;;
32407;SDS011;18869;55.970;37.502;2023-09-12T07:50:31;9.88;;;8.98;;
32407;SDS011;18869;55.970;37.502;2023-09-12T07:52:58;10.25;;;9.07;;
32407;SDS011;18869;55.970;37.502;2023-09-12T07:55:25;10.38;;;7.85;;
32407;SDS011;18869;55.970;37.502;2023-09-12T07:57:56;12.35;;;9.63;;
32407;SDS011;18869;55.970;37.502;2023-09-12T08:00:23;11.32;;;7.80;;
32407;SDS011;18869;55.970;37.502;2023-09-12T08:02:51;9.50;;;7.93;;
32407;SDS011;18869;55.970;37.502;2023-09-12T08:05:18;8.88;;;7.95;;
32407;SDS011;18869;55.970;37.502;2023-09-12T08:07:45;8.48;;;7.60;;
32407;SDS011;18869;55.970;37.502;2023-09-12T08:10:12;11.52;;;8.00;;
32407;SDS011;18869;55.970;37.502;2023-09-12T08:12:39;8.00;;;7.22;;
32407;SDS011;18869;55.970;37.502;2023-09-12T08:15:08;7.95;;;7.15;;
32407;SDS011;18869;55.970;37.502;2023-09-12T08:17:35;8.85;;;7.82;;
32407;SDS011;18869;55.970;37.502;2023-09-12T08:20:05;8.98;;;8.15;;
32407;SDS011;18869;55.970;37.502;2023-09-12T08:22:35;7.90;;;7.20;;
32407;SDS011;18869;55.970;37.502;2023-09-12T08:25:03;11.82;;;7.78;;
32407;SDS011;18869;55.970;37.502;2023-09-12T08:27:31;9.85;;;8.63;;
32407;SDS011;18869;55.970;37.502;2023-09-12T08:29:58;8.80;;;7.93;;
32407;SDS011;18869;55.970;37.502;2023-09-12T08:32:25;10.32;;;8.43;;
32407;SDS011;18869;55.970;37.502;2023-09-12T08:34:52;8.38;;;7.57;;
32407;SDS011;18869;55.970;37.502;2023-09-12T08:37:20;9.93;;;9.00;;
32407;SDS011;18869;55.970;37.502;2023-09-12T08:39:47;10.52;;;9.57;;
32407;SDS011;18869;55.970;37.502;2023-09-12T08:42:14;9.48;;;8.52;;
32407;SDS011;18869;55.970;37.502;2023-09-12T08:44:43;12.93;;;9.43;;
32407;SDS011;18869;55.970;37.502;2023-09-12T08:47:10;12.30;;;11.05;;
32407;SDS011;18869;55.970;37.502;2023-09-12T08:49:38;13.27;;;12.07;;
32407;SDS011;18869;55.970;37.502;2023-09-12T08:52:08;11.98;;;10.77;;
32407;SDS011;18869;55.970;37.502;2023-09-12T08:54:36;11.20;;;10.18;;
32407;SDS011;18869;55.970;37.502;2023-09-12T08:57:03;12.27;;;11.05;;
32407;SDS011;18869;55.970;37.502;2023-09-12T08:59:33;11.20;;;9.40;;
32407;SDS011;18869;55.970;37.502;2023-09-12T09:02:00;11.23;;;9.25;;
32407;SDS011;18869;55.970;37.502;2023-09-12T09:04:29;10.35;;;9.18;;
32407;SDS011;18869;55.970;37.502;2023-09-12T09:06:57;10.95;;;9.73;;
32407;SDS011;18869;55.970;37.502;2023-09-12T09:09:25;12.50;;;9.23;;
32407;SDS011;18869;55.970;37.502;2023-09-12T09:11:53;11.95;;;9.63;;
32407;SDS011;18869;55.970;37.502;2023-09-12T09:14:21;12.05;;;10.82;;
32407;SDS011;18869;55.970;37.502;2023-09-12T09:16:49;11.15;;;10.05;;
32407;SDS011;18869;55.970;37.502;2023-09-12T09:19:16;11.52;;;10.32;;
32407;SDS011;18869;55.970;37.502;2023-09-12T09:21:44;12.50;;;10.88;;
32407;SDS011;18869;55.970;37.502;2023-09-12T09:24:12;10.85;;;9.75;;
32407;SDS011;18869;55.970;37.502;2023-09-12T09:26:42;9.60;;;8.60;;
32407;SDS011;18869;55.970;37.502;2023-09-12T09:29:13;9.18;;;8.23;;
32407;SDS011;18869;55.970;37.502;2023-09-12T09:31:41;10.10;;;8.73;;
32407;SDS011;18869;55.970;37.502;2023-09-12T09:34:13;8.95;;;8.07;;
32407;SDS011;18869;55.970;37.502;2023-09-12T09:36:41;7.60;;;6.70;;
32407;SDS011;18869;55.970;37.502;2023-09-12T09:39:09;8.88;;;7.95;;
32407;SDS011;18869;55.970;37.502;2023-09-12T09:41:36;8.85;;;7.97;;
32407;SDS011;18869;55.970;37.502;2023-09-12T09:44:07;7.68;;;6.85;;
32407;SDS011;18869;55.970;37.502;2023-09-12T09:46:37;10.27;;;8.15;;
32407;SDS011;18869;55.970;37.502;2023-09-12T09:49:04;9.02;;;7.95;;
32407;SDS011;18869;55.970;37.502;2023-09-12T09:51:40;8.82;;;8.02;;
32407;SDS011;18869;55.970;37.502;2023-09-12T09:54:07;10.13;;;7.40;;
32407;SDS011;18869;55.970;37.502;2023-09-12T09:56:44;10.70;;;8.50;;
32407;SDS011;18869;55.970;37.502;2023-09-12T09:59:13;8.93;;;8.02;;
32407;SDS011;18869;55.970;37.502;2023-09-12T10:01:41;8.25;;;7.45;;
32407;SDS011;18869;55.970;37.502;2023-09-12T10:04:10;10.48;;;7.95;;
32407;SDS011;18869;55.970;37.502;2023-09-12T10:06:37;9.38;;;8.43;;
32407;SDS011;18869;55.970;37.502;2023-09-12T10:09:06;8.18;;;7.37;;
32407;SDS011;18869;55.970;37.502;2023-09-12T10:11:35;8.35;;;7.55;;
32407;SDS011;18869;55.970;37.502;2023-09-12T10:14:04;8.60;;;7.80;;
32407;SDS011;18869;55.970;37.502;2023-09-12T10:16:32;8.77;;;7.87;;
32407;SDS011;18869;55.970;37.502;2023-09-12T10:19:04;8.35;;;6.95;;
32407;SDS011;18869;55.970;37.502;2023-09-12T10:21:37;7.97;;;7.18;;
32407;SDS011;18869;55.970;37.502;2023-09-12T10:24:08;7.68;;;6.87;;
32407;SDS011;18869;55.970;37.502;2023-09-12T10:26:35;7.57;;;6.87;;
32407;SDS011;18869;55.970;37.502;2023-09-12T10:29:03;12.90;;;10.25;;
32407;SDS011;18869;55.970;37.502;2023-09-12T10:31:30;9.25;;;8.18;;
32407;SDS011;18869;55.970;37.502;2023-09-12T10:33:59;10.00;;;8.20;;
32407;SDS011;18869;55.970;37.502;2023-09-12T10:36:27;9.02;;;8.13;;
32407;SDS011;18869;55.970;37.502;2023-09-12T10:38:55;7.82;;;7.12;;
32407;SDS011;18869;55.970;37.502;2023-09-12T10:41:23;7.55;;;6.85;;
32407;SDS011;18869;55.970;37.502;2023-09-12T10:43:50;7.93;;;7.12;;
32407;SDS011;18869;55.970;37.502;2023-09-12T10:46:20;7.68;;;6.97;;
32407;SDS011;18869;55.970;37.502;2023-09-12T10:48:48;7.72;;;7.03;;
32407;SDS011;18869;55.970;37.502;2023-09-12T10:51:16;9.40;;;7.47;;
32407;SDS011;18869;55.970;37.502;2023-09-12T10:53:45;10.45;;;9.05;;
32407;SDS011;18869;55.970;37.502;2023-09-12T10:56:15;11.50;;;7.85;;
32407;SDS011;18869;55.970;37.502;2023-09-12T11:01:42;8.27;;;6.57;;
32407;SDS011;18869;55.970;37.502;2023-09-12T11:07:30;9.80;;;8.85;;
32407;SDS011;18869;55.970;37.502;2023-09-12T11:12:49;10.07;;;7.55;;
32407;SDS011;18869;55.970;37.502;2023-09-12T11:15:19;14.70;;;13.20;;
32407;SDS011;18869;55.970;37.502;2023-09-12T11:17:47;10.52;;;8.88;;
32407;SDS011;18869;55.970;37.502;2023-09-12T11:20:15;10.32;;;8.60;;
32407;SDS011;18869;55.970;37.502;2023-09-12T11:22:43;11.57;;;9.13;;
32407;SDS011;18869;55.970;37.502;2023-09-12T11:25:18;9.55;;;7.55;;
32407;SDS011;18869;55.970;37.502;2023-09-12T11:28:02;9.00;;;7.85;;
32407;SDS011;18869;55.970;37.502;2023-09-12T11:30:30;9.52;;;7.30;;
32407;SDS011;18869;55.970;37.502;2023-09-12T11:32:58;10.65;;;7.72;;
32407;SDS011;18869;55.970;37.502;2023-09-12T11:35:26;8.70;;;7.25;;
32407;SDS011;18869;55.970;37.502;2023-09-12T11:37:54;16.35;;;8.63;;
32407;SDS011;18869;55.970;37.502;2023-09-12T11:40:24;7.47;;;6.68;;
32407;SDS011;18869;55.970;37.502;2023-09-12T11:42:52;9.18;;;6.95;;
32407;SDS011;18869;55.970;37.502;2023-09-12T11:45:20;13.33;;;8.23;;
32407;SDS011;18869;55.970;37.502;2023-09-12T11:47:48;11.60;;;8.00;;
32407;SDS011;18869;55.970;37.502;2023-09-12T11:50:26;10.00;;;7.73;;
32407;SDS011;18869;55.970;37.502;2023-09-12T11:53:01;12.10;;;8.27;;
32407;SDS011;18869;55.970;37.502;2023-09-12T11:55:31;11.20;;;8.57;;
32407;SDS011;18869;55.970;37.502;2023-09-12T11:57:59;11.10;;;7.80;;
32407;SDS011;18869;55.970;37.502;2023-09-12T12:00:26;10.63;;;8.07;;
32407;SDS011;18869;55.970;37.502;2023-09-12T12:02:54;12.37;;;8.20;;
32407;SDS011;18869;55.970;37.502;2023-09-12T12:05:21;11.10;;;8.97;;
32407;SDS011;18869;55.970;37.502;2023-09-12T12:07:49;11.67;;;9.20;;
32407;SDS011;18869;55.970;37.502;2023-09-12T12:10:18;13.30;;;8.73;;
32407;SDS011;18869;55.970;37.502;2023-09-12T12:12:46;11.77;;;8.70;;
32407;SDS011;18869;55.970;37.502;2023-09-12T12:15:13;13.40;;;8.73;;
32407;SDS011;18869;55.970;37.502;2023-09-12T12:17:40;12.07;;;9.00;;
32407;SDS011;18869;55.970;37.502;2023-09-12T12:20:08;15.80;;;8.80;;
32407;SDS011;18869;55.970;37.502;2023-09-12T12:22:36;15.53;;;9.23;;
32407;SDS011;18869;55.970;37.502;2023-09-12T12:25:07;16.50;;;9.10;;
32407;SDS011;18869;55.970;37.502;2023-09-12T12:27:35;13.30;;;9.77;;
32407;SDS011;18869;55.970;37.502;2023-09-12T12:30:06;14.43;;;10.37;;
32407;SDS011;18869;55.970;37.502;2023-09-12T12:32:35;16.50;;;10.97;;
32407;SDS011;18869;55.970;37.502;2023-09-12T12:35:03;14.33;;;9.60;;
32407;SDS011;18869;55.970;37.502;2023-09-12T12:37:33;13.37;;;9.27;;
32407;SDS011;18869;55.970;37.502;2023-09-12T12:40:02;12.53;;;8.60;;
32407;SDS011;18869;55.970;37.502;2023-09-12T12:42:33;12.80;;;8.90;;
32407;SDS011;18869;55.970;37.502;2023-09-12T12:45:01;17.97;;;10.43;;
32407;SDS011;18869;55.970;37.502;2023-09-12T12:47:31;22.87;;;17.13;;
32407;SDS011;18869;55.970;37.502;2023-09-12T12:50:00;11.97;;;10.00;;
32407;SDS011;18869;55.970;37.502;2023-09-12T12:52:27;10.13;;;7.43;;
32407;SDS011;18869;55.970;37.502;2023-09-12T12:54:54;12.50;;;8.50;;
32407;SDS011;18869;55.970;37.502;2023-09-12T12:57:30;13.27;;;8.40;;
32407;SDS011;18869;55.970;37.502;2023-09-12T13:00:00;10.30;;;8.60;;
32407;SDS011;18869;55.970;37.502;2023-09-12T13:02:30;10.97;;;8.73;;
32407;SDS011;18869;55.970;37.502;2023-09-12T13:04:58;9.87;;;7.20;;
32407;SDS011;18869;55.970;37.502;2023-09-12T13:07:24;10.30;;;7.50;;
32407;SDS011;18869;55.970;37.502;2023-09-12T13:09:51;9.90;;;6.20;;
32407;SDS011;18869;55.970;37.502;2023-09-12T13:12:18;12.27;;;7.47;;
32407;SDS011;18869;55.970;37.502;2023-09-12T13:14:45;8.23;;;6.50;;
32407;SDS011;18869;55.970;37.502;2023-09-12T13:17:12;10.93;;;5.90;;
32407;SDS011;18869;55.970;37.502;2023-09-12T13:19:41;9.37;;;6.40;;
32407;SDS011;18869;55.970;37.502;2023-09-12T13:22:08;9.87;;;6.77;;
32407;SDS011;18869;55.970;37.502;2023-09-12T13:24:35;10.37;;;6.87;;
32407;SDS011;18869;55.970;37.502;2023-09-12T13:27:03;8.93;;;5.53;;
32407;SDS011;18869;55.970;37.502;2023-09-12T13:29:30;9.07;;;7.47;;
32407;SDS011;18869;55.970;37.502;2023-09-12T13:31:58;22.40;;;13.70;;
32407;SDS011;18869;55.970;37.502;2023-09-12T13:34:25;17.10;;;12.93;;
32407;SDS011;18869;55.970;37.502;2023-09-12T13:36:53;15.90;;;10.30;;
32407;SDS011;18869;55.970;37.502;2023-09-12T13:39:20;11.00;;;7.73;;
32407;SDS011;18869;55.970;37.502;2023-09-12T13:41:47;10.80;;;6.43;;
32407;SDS011;18869;55.970;37.502;2023-09-12T13:44:14;13.93;;;8.90;;
32407;SDS011;18869;55.970;37.502;2023-09-12T13:46:43;15.60;;;8.87;;
32407;SDS011;18869;55.970;37.502;2023-09-12T13:49:12;10.93;;;8.30;;
32407;SDS011;18869;55.970;37.502;2023-09-12T13:51:39;14.90;;;10.53;;
32407;SDS011;18869;55.970;37.502;2023-09-12T13:54:07;12.20;;;9.77;;
32407;SDS011;18869;55.970;37.502;2023-09-12T13:56:41;18.40;;;8.50;;
32407;SDS011;18869;55.970;37.502;2023-09-12T13:59:09;10.60;;;6.70;;
32407;SDS011;18869;55.970;37.502;2023-09-12T14:01:36;11.87;;;7.63;;
32407;SDS011;18869;55.970;37.502;2023-09-12T14:04:04;13.53;;;7.57;;
32407;SDS011;18869;55.970;37.502;2023-09-12T14:06:32;18.77;;;11.07;;
32407;SDS011;18869;55.970;37.502;2023-09-12T14:09:00;10.37;;;7.33;;
32407;SDS011;18869;55.970;37.502;2023-09-12T14:11:28;10.87;;;7.03;;
32407;SDS011;18869;55.970;37.502;2023-09-12T14:13:56;9.60;;;7.30;;
32407;SDS011;18869;55.970;37.502;2023-09-12T14:16:23;16.47;;;8.30;;
32407;SDS011;18869;55.970;37.502;2023-09-12T14:18:50;24.33;;;12.87;;
32407;SDS011;18869;55.970;37.502;2023-09-12T14:21:17;29.43;;;16.20;;
32407;SDS011;18869;55.970;37.502;2023-09-12T14:23:44;30.80;;;15.87;;
32407;SDS011;18869;55.970;37.502;2023-09-12T14:26:12;26.33;;;13.70;;
32407;SDS011;18869;55.970;37.502;2023-09-12T14:28:39;25.03;;;14.00;;
32407;SDS011;18869;55.970;37.502;2023-09-12T14:31:06;18.13;;;10.90;;
32407;SDS011;18869;55.970;37.502;2023-09-12T14:33:39;11.03;;;7.77;;